sensor_id;sensor_type;location;lat;lon;timestamp;pressure;altitude;pressure_sealevel;temperature;humidity
59063;BME280;44851;45.648;9.004;2022-11-20T00:00:44;98207.75;;;6.27;56.33
59063;BME280;44851;45.648;9.004;2022-11-20T00:03:09;98209.25;;;6.39;56.40
59063;BME280;44851;45.648;9.004;2022-11-20T00:05:35;98205.22;;;6.46;56.58
59063;BME280;44851;45.648;9.004;2022-11-20T00:08:00;98216.34;;;6.37;57.04
59063;BME280;44851;45.648;9.004;2022-11-20T00:10:25;98211.28;;;6.26;56.32
59063;BME280;44851;45.648;9.004;2022-11-20T00:12:51;98231.03;;;6.27;57.25
59063;BME280;44851;45.648;9.004;2022-11-20T00:15:16;98223.38;;;6.15;57.01
59063;BME280;44851;45.648;9.004;2022-11-20T00:17:42;98225.28;;;6.23;56.56
59063;BME280;44851;45.648;9.004;2022-11-20T00:20:08;98225.53;;;6.10;57.75
59063;BME280;44851;45.648;9.004;2022-11-20T00:22:33;98227.63;;;6.26;56.90
59063;BME280;44851;45.648;9.004;2022-11-20T00:24:58;98231.56;;;6.21;56.89
59063;BME280;44851;45.648;9.004;2022-11-20T00:27:24;98239.69;;;6.16;57.36
59063;BME280;44851;45.648;9.004;2022-11-20T00:29:49;98243.97;;;5.96;58.07
59063;BME280;44851;45.648;9.004;2022-11-20T00:32:14;98235.63;;;6.13;57.50
59063;BME280;44851;45.648;9.004;2022-11-20T00:34:40;98244.00;;;6.06;57.42
59063;BME280;44851;45.648;9.004;2022-11-20T00:37:05;98242.94;;;6.08;57.43
59063;BME280;44851;45.648;9.004;2022-11-20T00:39:30;98243.41;;;5.93;58.08
59063;BME280;44851;45.648;9.004;2022-11-20T00:41:56;98256.72;;;5.88;57.75
59063;BME280;44851;45.648;9.004;2022-11-20T00:44:21;98262.00;;;5.66;58.28
59063;BME280;44851;45.648;9.004;2022-11-20T00:46:46;98260.75;;;5.60;58.73
59063;BME280;44851;45.648;9.004;2022-11-20T00:49:12;98267.22;;;5.75;57.69
59063;BME280;44851;45.648;9.004;2022-11-20T00:51:37;98271.91;;;5.60;59.08
59063;BME280;44851;45.648;9.004;2022-11-20T00:54:02;98270.69;;;5.64;58.51
59063;BME280;44851;45.648;9.004;2022-11-20T00:56:28;98270.06;;;5.51;59.12
59063;BME280;44851;45.648;9.004;2022-11-20T00:58:54;98268.81;;;5.67;59.15
59063;BME280;44851;45.648;9.004;2022-11-20T01:01:22;98261.75;;;5.69;58.61
59063;BME280;44851;45.648;9.004;2022-11-20T01:03:50;98258.91;;;5.51;59.13
59063;BME280;44851;45.648;9.004;2022-11-20T01:08:43;98257.31;;;5.59;59.51
59063;BME280;44851;45.648;9.004;2022-11-20T01:11:14;98249.34;;;5.62;58.65
59063;BME280;44851;45.648;9.004;2022-11-20T01:13:41;98251.78;;;5.43;59.29
59063;BME280;44851;45.648;9.004;2022-11-20T01:16:30;98256.47;;;5.49;58.21
59063;BME280;44851;45.648;9.004;2022-11-20T01:18:58;98261.63;;;5.49;59.68
59063;BME280;44851;45.648;9.004;2022-11-20T01:21:28;98265.41;;;5.45;59.46
59063;BME280;44851;45.648;9.004;2022-11-20T01:23:55;98268.53;;;5.28;59.90
59063;BME280;44851;45.648;9.004;2022-11-20T01:26:23;98272.25;;;5.35;59.61
59063;BME280;44851;45.648;9.004;2022-11-20T01:28:49;98274.41;;;5.30;59.12
59063;BME280;44851;45.648;9.004;2022-11-20T01:31:18;98269.03;;;5.43;59.38
59063;BME280;44851;45.648;9.004;2022-11-20T01:33:45;98270.41;;;5.26;58.90
59063;BME280;44851;45.648;9.004;2022-11-20T01:36:11;98273.81;;;5.26;59.36
59063;BME280;44851;45.648;9.004;2022-11-20T01:38:37;98271.88;;;5.19;59.49
59063;BME280;44851;45.648;9.004;2022-11-20T01:41:04;98274.09;;;5.23;59.37
59063;BME280;44851;45.648;9.004;2022-11-20T01:43:29;98280.06;;;5.24;59.45
59063;BME280;44851;45.648;9.004;2022-11-20T01:49:11;98285.16;;;5.14;59.57
59063;BME280;44851;45.648;9.004;2022-11-20T01:51:20;98280.56;;;5.18;59.71
59063;BME280;44851;45.648;9.004;2022-11-20T01:53:49;98288.50;;;5.26;59.06
59063;BME280;44851;45.648;9.004;2022-11-20T01:56:15;98288.72;;;5.34;58.49
59063;BME280;44851;45.648;9.004;2022-11-20T01:58:49;98292.75;;;5.16;59.35
59063;BME280;44851;45.648;9.004;2022-11-20T02:01:16;98291.41;;;5.32;58.79
59063;BME280;44851;45.648;9.004;2022-11-20T02:03:43;98295.16;;;5.40;58.66
59063;BME280;44851;45.648;9.004;2022-11-20T02:06:14;98294.44;;;5.05;58.49
59063;BME280;44851;45.648;9.004;2022-11-20T02:08:41;98300.28;;;5.19;59.38
59063;BME280;44851;45.648;9.004;2022-11-20T02:11:07;98307.03;;;4.99;59.06
59063;BME280;44851;45.648;9.004;2022-11-20T02:13:33;98314.53;;;5.02;59.12
59063;BME280;44851;45.648;9.004;2022-11-20T02:16:10;98307.28;;;4.96;58.97
59063;BME280;44851;45.648;9.004;2022-11-20T02:18:37;98305.53;;;4.74;58.72
59063;BME280;44851;45.648;9.004;2022-11-20T02:21:20;98312.56;;;4.83;59.30
59063;BME280;44851;45.648;9.004;2022-11-20T02:26:19;98312.00;;;4.68;59.08
59063;BME280;44851;45.648;9.004;2022-11-20T02:28:47;98317.13;;;4.79;59.41
59063;BME280;44851;45.648;9.004;2022-11-20T02:31:12;98312.81;;;4.91;59.00
59063;BME280;44851;45.648;9.004;2022-11-20T02:33:37;98318.69;;;4.82;59.31
59063;BME280;44851;45.648;9.004;2022-11-20T02:36:03;98314.69;;;4.67;59.46
59063;BME280;44851;45.648;9.004;2022-11-20T02:38:28;98311.63;;;4.84;59.59
59063;BME280;44851;45.648;9.004;2022-11-20T02:40:54;98305.28;;;4.88;59.44
59063;BME280;44851;45.648;9.004;2022-11-20T02:43:19;98314.47;;;4.81;59.59
59063;BME280;44851;45.648;9.004;2022-11-20T02:45:44;98315.63;;;4.77;59.81
59063;BME280;44851;45.648;9.004;2022-11-20T02:48:09;98307.41;;;4.72;59.58
59063;BME280;44851;45.648;9.004;2022-11-20T02:50:38;98314.81;;;4.76;60.23
59063;BME280;44851;45.648;9.004;2022-11-20T02:53:05;98310.13;;;4.70;60.11
59063;BME280;44851;45.648;9.004;2022-11-20T02:55:30;98301.28;;;4.84;59.92
59063;BME280;44851;45.648;9.004;2022-11-20T02:57:55;98315.63;;;4.77;60.10
59063;BME280;44851;45.648;9.004;2022-11-20T03:00:21;98315.63;;;4.77;59.87
59063;BME280;44851;45.648;9.004;2022-11-20T03:02:46;98315.53;;;4.67;59.68
59063;BME280;44851;45.648;9.004;2022-11-20T03:05:11;98317.06;;;4.70;59.75
59063;BME280;44851;45.648;9.004;2022-11-20T03:07:36;98314.22;;;4.73;60.53
59063;BME280;44851;45.648;9.004;2022-11-20T03:10:03;98318.69;;;4.71;60.16
59063;BME280;44851;45.648;9.004;2022-11-20T03:12:28;98312.09;;;4.78;60.45
59063;BME280;44851;45.648;9.004;2022-11-20T03:14:54;98309.66;;;4.76;60.11
59063;BME280;44851;45.648;9.004;2022-11-20T03:17:19;98310.25;;;4.57;60.60
59063;BME280;44851;45.648;9.004;2022-11-20T03:19:44;98311.66;;;4.62;60.61
59063;BME280;44851;45.648;9.004;2022-11-20T03:22:10;98306.00;;;4.68;60.84
59063;BME280;44851;45.648;9.004;2022-11-20T03:24:35;98318.59;;;4.61;61.26
59063;BME280;44851;45.648;9.004;2022-11-20T03:27:00;98310.72;;;4.51;60.86
59063;BME280;44851;45.648;9.004;2022-11-20T03:29:25;98314.38;;;4.49;60.61
59063;BME280;44851;45.648;9.004;2022-11-20T03:31:51;98314.84;;;4.54;61.27
59063;BME280;44851;45.648;9.004;2022-11-20T03:34:16;98309.78;;;4.52;60.84
59063;BME280;44851;45.648;9.004;2022-11-20T03:36:42;98309.09;;;4.50;61.22
59063;BME280;44851;45.648;9.004;2022-11-20T03:39:08;98306.16;;;4.55;60.47
59063;BME280;44851;45.648;9.004;2022-11-20T03:41:37;98307.91;;;4.66;60.66
59063;BME280;44851;45.648;9.004;2022-11-20T03:44:06;98321.03;;;4.51;60.53
59063;BME280;44851;45.648;9.004;2022-11-20T03:46:32;98310.97;;;4.48;60.30
59063;BME280;44851;45.648;9.004;2022-11-20T03:48:57;98316.81;;;4.62;59.76
59063;BME280;44851;45.648;9.004;2022-11-20T03:51:27;98321.28;;;4.59;60.39
59063;BME280;44851;45.648;9.004;2022-11-20T03:53:55;98325.50;;;4.61;59.88
59063;BME280;44851;45.648;9.004;2022-11-20T03:56:23;98320.94;;;4.64;59.25
59063;BME280;44851;45.648;9.004;2022-11-20T03:58:49;98327.13;;;4.62;59.93
59063;BME280;44851;45.648;9.004;2022-11-20T04:01:17;98324.44;;;4.52;59.60
59063;BME280;44851;45.648;9.004;2022-11-20T04:03:43;98325.97;;;4.54;59.28
59063;BME280;44851;45.648;9.004;2022-11-20T04:06:14;98323.06;;;4.59;58.76
59063;BME280;44851;45.648;9.004;2022-11-20T04:08:40;98328.09;;;4.49;58.80
59063;BME280;44851;45.648;9.004;2022-11-20T04:11:16;98325.84;;;4.45;59.16
59063;BME280;44851;45.648;9.004;2022-11-20T04:13:45;98314.47;;;4.47;59.17
59063;BME280;44851;45.648;9.004;2022-11-20T04:16:11;98316.34;;;4.45;59.20
59063;BME280;44851;45.648;9.004;2022-11-20T04:18:36;98315.53;;;4.45;59.92
59063;BME280;44851;45.648;9.004;2022-11-20T04:21:03;98314.03;;;4.53;59.27
59063;BME280;44851;45.648;9.004;2022-11-20T04:23:29;98322.47;;;4.55;59.68
59063;BME280;44851;45.648;9.004;2022-11-20T04:25:54;98327.84;;;4.41;59.68
59063;BME280;44851;45.648;9.004;2022-11-20T04:28:20;98326.19;;;4.29;59.82
59063;BME280;44851;45.648;9.004;2022-11-20T04:30:45;98325.03;;;4.22;60.23
59063;BME280;44851;45.648;9.004;2022-11-20T04:33:11;98326.06;;;4.30;60.50
59063;BME280;44851;45.648;9.004;2022-11-20T04:35:37;98338.84;;;4.21;60.47
59063;BME280;44851;45.648;9.004;2022-11-20T04:38:03;98328.53;;;4.21;59.98
59063;BME280;44851;45.648;9.004;2022-11-20T04:40:28;98325.94;;;4.10;60.81
59063;BME280;44851;45.648;9.004;2022-11-20T04:42:54;98335.19;;;4.01;61.30
59063;BME280;44851;45.648;9.004;2022-11-20T04:45:20;98326.19;;;4.06;61.16
59063;BME280;44851;45.648;9.004;2022-11-20T04:47:46;98334.75;;;4.18;60.38
59063;BME280;44851;45.648;9.004;2022-11-20T04:50:11;98329.25;;;4.12;60.42
59063;BME280;44851;45.648;9.004;2022-11-20T04:52:36;98332.28;;;4.17;60.23
59063;BME280;44851;45.648;9.004;2022-11-20T04:55:02;98332.97;;;4.07;60.42
59063;BME280;44851;45.648;9.004;2022-11-20T04:57:27;98336.97;;;4.00;59.97
59063;BME280;44851;45.648;9.004;2022-11-20T04:59:52;98330.03;;;3.90;60.46
59063;BME280;44851;45.648;9.004;2022-11-20T05:02:18;98335.28;;;3.99;60.05
59063;BME280;44851;45.648;9.004;2022-11-20T05:04:43;98343.16;;;3.98;60.07
59063;BME280;44851;45.648;9.004;2022-11-20T05:07:08;98338.47;;;4.03;60.34
59063;BME280;44851;45.648;9.004;2022-11-20T05:09:34;98343.28;;;4.07;59.99
59063;BME280;44851;45.648;9.004;2022-11-20T05:11:59;98347.97;;;4.02;59.62
59063;BME280;44851;45.648;9.004;2022-11-20T05:14:24;98345.38;;;4.02;59.70
59063;BME280;44851;45.648;9.004;2022-11-20T05:16:50;98348.81;;;4.14;59.84
59063;BME280;44851;45.648;9.004;2022-11-20T05:19:15;98355.38;;;4.18;59.31
59063;BME280;44851;45.648;9.004;2022-11-20T05:21:40;98355.38;;;4.18;59.94
59063;BME280;44851;45.648;9.004;2022-11-20T05:24:06;98359.94;;;4.15;59.72
59063;BME280;44851;45.648;9.004;2022-11-20T05:26:32;98363.72;;;4.22;59.88
59063;BME280;44851;45.648;9.004;2022-11-20T05:28:57;98355.50;;;4.05;60.13
59063;BME280;44851;45.648;9.004;2022-11-20T05:31:24;98358.47;;;3.88;60.62
59063;BME280;44851;45.648;9.004;2022-11-20T05:33:49;98361.81;;;4.01;60.08
59063;BME280;44851;45.648;9.004;2022-11-20T05:36:16;98360.84;;;3.91;59.56
59063;BME280;44851;45.648;9.004;2022-11-20T05:38:42;98371.16;;;4.02;58.83
59063;BME280;44851;45.648;9.004;2022-11-20T05:41:08;98368.13;;;3.97;59.35
59063;BME280;44851;45.648;9.004;2022-11-20T05:43:35;98369.06;;;4.07;59.39
59063;BME280;44851;45.648;9.004;2022-11-20T05:46:02;98378.63;;;3.94;59.63
59063;BME280;44851;45.648;9.004;2022-11-20T05:48:28;98379.84;;;4.01;59.49
59063;BME280;44851;45.648;9.004;2022-11-20T05:50:53;98384.06;;;4.02;59.34
59063;BME280;44851;45.648;9.004;2022-11-20T05:53:18;98381.69;;;3.99;59.90
59063;BME280;44851;45.648;9.004;2022-11-20T05:55:44;98383.38;;;4.00;60.36
59063;BME280;44851;45.648;9.004;2022-11-20T05:58:09;98386.66;;;4.02;59.23
59063;BME280;44851;45.648;9.004;2022-11-20T06:00:34;98384.03;;;3.91;59.42
59063;BME280;44851;45.648;9.004;2022-11-20T06:03:00;98380.59;;;3.79;59.92
59063;BME280;44851;45.648;9.004;2022-11-20T06:05:25;98388.22;;;3.81;59.64
59063;BME280;44851;45.648;9.004;2022-11-20T06:07:51;98386.09;;;3.75;60.25
59063;BME280;44851;45.648;9.004;2022-11-20T06:10:16;98385.31;;;3.86;59.85
59063;BME280;44851;45.648;9.004;2022-11-20T06:12:41;98393.38;;;3.81;60.37
59063;BME280;44851;45.648;9.004;2022-11-20T06:15:07;98389.66;;;3.85;60.46
59063;BME280;44851;45.648;9.004;2022-11-20T06:17:33;98398.53;;;3.81;60.66
59063;BME280;44851;45.648;9.004;2022-11-20T06:19:58;98395.47;;;3.76;60.24
59063;BME280;44851;45.648;9.004;2022-11-20T06:22:23;98404.78;;;3.66;60.60
59063;BME280;44851;45.648;9.004;2022-11-20T06:24:49;98404.91;;;3.64;61.05
59063;BME280;44851;45.648;9.004;2022-11-20T06:27:14;98406.81;;;3.73;60.11
59063;BME280;44851;45.648;9.004;2022-11-20T06:29:39;98412.03;;;3.61;61.24
59063;BME280;44851;45.648;9.004;2022-11-20T06:32:04;98419.25;;;3.56;60.86
59063;BME280;44851;45.648;9.004;2022-11-20T06:34:30;98416.53;;;3.70;61.29
59063;BME280;44851;45.648;9.004;2022-11-20T06:36:55;98414.66;;;3.72;60.67
59063;BME280;44851;45.648;9.004;2022-11-20T06:39:20;98418.00;;;3.61;60.47
59063;BME280;44851;45.648;9.004;2022-11-20T06:41:46;98416.03;;;3.65;60.66
59063;BME280;44851;45.648;9.004;2022-11-20T06:44:11;98426.47;;;3.63;60.17
59063;BME280;44851;45.648;9.004;2022-11-20T06:46:36;98426.88;;;3.57;60.50
59063;BME280;44851;45.648;9.004;2022-11-20T06:49:02;98427.28;;;3.64;60.91
59063;BME280;44851;45.648;9.004;2022-11-20T06:51:27;98431.19;;;3.57;60.79
59063;BME280;44851;45.648;9.004;2022-11-20T06:53:53;98432.16;;;3.56;60.83
59063;BME280;44851;45.648;9.004;2022-11-20T06:56:18;98438.56;;;3.50;61.22
59063;BME280;44851;45.648;9.004;2022-11-20T06:58:43;98436.28;;;3.58;61.02
59063;BME280;44851;45.648;9.004;2022-11-20T07:01:11;98446.25;;;3.63;61.37
59063;BME280;44851;45.648;9.004;2022-11-20T07:03:37;98447.44;;;3.70;61.99
59063;BME280;44851;45.648;9.004;2022-11-20T07:06:04;98441.34;;;3.71;60.87
59063;BME280;44851;45.648;9.004;2022-11-20T07:08:30;98444.44;;;3.76;61.67
59063;BME280;44851;45.648;9.004;2022-11-20T07:10:59;98442.75;;;3.64;61.37
59063;BME280;44851;45.648;9.004;2022-11-20T07:13:26;98451.47;;;3.74;61.51
59063;BME280;44851;45.648;9.004;2022-11-20T07:15:51;98462.78;;;3.71;60.89
59063;BME280;44851;45.648;9.004;2022-11-20T07:18:17;98459.53;;;3.69;60.72
59063;BME280;44851;45.648;9.004;2022-11-20T07:20:42;98465.34;;;3.84;61.12
59063;BME280;44851;45.648;9.004;2022-11-20T07:23:07;98466.81;;;3.75;61.12
59063;BME280;44851;45.648;9.004;2022-11-20T07:25:33;98465.69;;;3.67;61.27
59063;BME280;44851;45.648;9.004;2022-11-20T07:27:59;98473.97;;;3.83;61.37
59063;BME280;44851;45.648;9.004;2022-11-20T07:30:25;98482.69;;;3.93;60.52
59063;BME280;44851;45.648;9.004;2022-11-20T07:32:52;98486.72;;;3.97;61.33
59063;BME280;44851;45.648;9.004;2022-11-20T07:35:18;98483.44;;;3.95;61.55
59063;BME280;44851;45.648;9.004;2022-11-20T07:37:44;98495.59;;;3.93;61.54
59063;BME280;44851;45.648;9.004;2022-11-20T07:40:14;98495.59;;;3.93;62.06
59063;BME280;44851;45.648;9.004;2022-11-20T07:42:50;98492.81;;;3.96;61.02
59063;BME280;44851;45.648;9.004;2022-11-20T07:45:17;98493.97;;;4.16;60.71
59063;BME280;44851;45.648;9.004;2022-11-20T07:47:42;98494.50;;;4.09;62.14
59063;BME280;44851;45.648;9.004;2022-11-20T07:50:08;98504.19;;;4.05;62.05
59063;BME280;44851;45.648;9.004;2022-11-20T07:52:33;98505.06;;;4.05;62.23
59063;BME280;44851;45.648;9.004;2022-11-20T07:54:58;98495.81;;;4.14;61.80
59063;BME280;44851;45.648;9.004;2022-11-20T07:57:24;98504.19;;;4.29;60.93
59063;BME280;44851;45.648;9.004;2022-11-20T07:59:49;98499.53;;;4.34;60.36
59063;BME280;44851;45.648;9.004;2022-11-20T08:02:14;98501.97;;;4.36;60.90
59063;BME280;44851;45.648;9.004;2022-11-20T08:04:40;98505.88;;;4.41;60.96
59063;BME280;44851;45.648;9.004;2022-11-20T08:07:05;98509.88;;;4.45;60.53
59063;BME280;44851;45.648;9.004;2022-11-20T08:09:30;98519.00;;;4.38;61.00
59063;BME280;44851;45.648;9.004;2022-11-20T08:11:55;98521.75;;;4.48;61.47
59063;BME280;44851;45.648;9.004;2022-11-20T08:14:39;98529.41;;;4.72;60.69
59063;BME280;44851;45.648;9.004;2022-11-20T08:17:05;98531.06;;;4.73;61.24
59063;BME280;44851;45.648;9.004;2022-11-20T08:19:30;98530.41;;;4.93;60.53
59063;BME280;44851;45.648;9.004;2022-11-20T08:21:55;98531.94;;;4.96;61.76
59063;BME280;44851;45.648;9.004;2022-11-20T08:24:21;98532.06;;;5.05;61.11
59063;BME280;44851;45.648;9.004;2022-11-20T08:26:46;98530.19;;;5.30;60.20
59063;BME280;44851;45.648;9.004;2022-11-20T08:29:11;98536.75;;;5.56;59.91
59063;BME280;44851;45.648;9.004;2022-11-20T08:31:37;98538.84;;;5.96;59.62
59063;BME280;44851;45.648;9.004;2022-11-20T08:34:03;98543.69;;;6.22;59.04
59063;BME280;44851;45.648;9.004;2022-11-20T08:36:28;98536.94;;;6.62;60.50
59063;BME280;44851;45.648;9.004;2022-11-20T08:38:55;98546.72;;;7.01;56.51
59063;BME280;44851;45.648;9.004;2022-11-20T08:41:21;98542.38;;;7.62;59.26
59063;BME280;44851;45.648;9.004;2022-11-20T08:43:51;98546.59;;;8.13;59.60
59063;BME280;44851;45.648;9.004;2022-11-20T08:46:17;98541.44;;;8.42;58.48
59063;BME280;44851;45.648;9.004;2022-11-20T08:48:44;98534.97;;;8.75;58.51
59063;BME280;44851;45.648;9.004;2022-11-20T08:51:10;98541.91;;;8.94;56.27
59063;BME280;44851;45.648;9.004;2022-11-20T08:53:36;98539.44;;;9.02;54.84
59063;BME280;44851;45.648;9.004;2022-11-20T08:56:01;98548.09;;;9.30;56.49
59063;BME280;44851;45.648;9.004;2022-11-20T08:58:27;98552.94;;;9.63;56.98
59063;BME280;44851;45.648;9.004;2022-11-20T09:00:52;98547.59;;;9.92;57.20
59063;BME280;44851;45.648;9.004;2022-11-20T09:03:18;98552.97;;;10.08;56.42
59063;BME280;44851;45.648;9.004;2022-11-20T09:05:43;98554.47;;;10.28;54.98
59063;BME280;44851;45.648;9.004;2022-11-20T09:08:08;98546.88;;;10.53;54.99
59063;BME280;44851;45.648;9.004;2022-11-20T09:10:34;98547.75;;;10.79;51.83
59063;BME280;44851;45.648;9.004;2022-11-20T09:12:59;98548.88;;;10.77;51.60
59063;BME280;44851;45.648;9.004;2022-11-20T09:15:25;98549.94;;;10.92;48.77
59063;BME280;44851;45.648;9.004;2022-11-20T09:17:55;98542.03;;;11.02;48.25
59063;BME280;44851;45.648;9.004;2022-11-20T09:20:21;98550.22;;;11.33;50.62
59063;BME280;44851;45.648;9.004;2022-11-20T09:22:47;98551.03;;;11.33;50.20
59063;BME280;44851;45.648;9.004;2022-11-20T09:25:13;98552.13;;;11.57;51.14
59063;BME280;44851;45.648;9.004;2022-11-20T09:27:38;98550.25;;;11.75;49.65
59063;BME280;44851;45.648;9.004;2022-11-20T09:30:04;98556.59;;;12.15;52.65
59063;BME280;44851;45.648;9.004;2022-11-20T09:32:30;98558.41;;;11.80;45.67
59063;BME280;44851;45.648;9.004;2022-11-20T09:34:55;98552.97;;;12.00;48.71
59063;BME280;44851;45.648;9.004;2022-11-20T09:37:20;98549.69;;;11.98;45.58
59063;BME280;44851;45.648;9.004;2022-11-20T09:39:46;98550.09;;;12.27;45.65
59063;BME280;44851;45.648;9.004;2022-11-20T09:45:03;98549.13;;;12.44;45.24
59063;BME280;44851;45.648;9.004;2022-11-20T09:47:52;98540.63;;;12.51;46.73
59063;BME280;44851;45.648;9.004;2022-11-20T09:50:45;98543.91;;;12.53;47.63
59063;BME280;44851;45.648;9.004;2022-11-20T09:53:16;98543.88;;;12.93;45.03
59063;BME280;44851;45.648;9.004;2022-11-20T09:55:45;98537.66;;;12.94;44.47
59063;BME280;44851;45.648;9.004;2022-11-20T10:01:00;98531.28;;;13.13;41.58
59063;BME280;44851;45.648;9.004;2022-11-20T10:04:15;98532.41;;;13.27;42.59
59063;BME280;44851;45.648;9.004;2022-11-20T10:06:47;98536.97;;;13.25;43.24
59063;BME280;44851;45.648;9.004;2022-11-20T10:09:23;98528.97;;;13.27;40.74
59063;BME280;44851;45.648;9.004;2022-11-20T10:12:19;98527.63;;;13.31;42.76
59063;BME280;44851;45.648;9.004;2022-11-20T10:15:02;98530.72;;;13.34;42.58
59063;BME280;44851;45.648;9.004;2022-11-20T10:26:17;98523.25;;;13.70;40.35
59063;BME280;44851;45.648;9.004;2022-11-20T10:29:39;98521.75;;;13.99;40.20
59063;BME280;44851;45.648;9.004;2022-11-20T10:32:02;98524.09;;;14.25;38.67
59063;BME280;44851;45.648;9.004;2022-11-20T10:37:27;98531.41;;;13.76;37.83
59063;BME280;44851;45.648;9.004;2022-11-20T10:42:45;98521.66;;;14.15;39.17
59063;BME280;44851;45.648;9.004;2022-11-20T10:47:45;98519.56;;;14.11;37.85
59063;BME280;44851;45.648;9.004;2022-11-20T10:50:14;98519.91;;;14.08;37.64
59063;BME280;44851;45.648;9.004;2022-11-20T10:53:05;98521.66;;;13.92;38.05
59063;BME280;44851;45.648;9.004;2022-11-20T10:55:58;98525.59;;;13.88;38.35
59063;BME280;44851;45.648;9.004;2022-11-20T11:01:13;98520.50;;;14.18;37.70
59063;BME280;44851;45.648;9.004;2022-11-20T11:03:39;98517.97;;;14.33;38.82
59063;BME280;44851;45.648;9.004;2022-11-20T11:06:10;98509.25;;;14.40;39.15
59063;BME280;44851;45.648;9.004;2022-11-20T11:08:39;98509.38;;;14.62;37.60
59063;BME280;44851;45.648;9.004;2022-11-20T11:11:21;98511.72;;;14.57;37.05
59063;BME280;44851;45.648;9.004;2022-11-20T11:13:47;98512.34;;;14.82;36.22
59063;BME280;44851;45.648;9.004;2022-11-20T11:16:24;98510.38;;;14.61;36.89
59063;BME280;44851;45.648;9.004;2022-11-20T11:18:50;98505.91;;;14.84;37.26
59063;BME280;44851;45.648;9.004;2022-11-20T11:21:23;98507.28;;;14.95;37.48
59063;BME280;44851;45.648;9.004;2022-11-20T11:24:01;98506.63;;;14.78;36.24
59063;BME280;44851;45.648;9.004;2022-11-20T11:26:27;98498.66;;;14.86;36.75
59063;BME280;44851;45.648;9.004;2022-11-20T11:29:01;98502.13;;;15.01;36.93
59063;BME280;44851;45.648;9.004;2022-11-20T11:31:31;98496.34;;;15.21;37.40
59063;BME280;44851;45.648;9.004;2022-11-20T11:34:07;98498.06;;;15.28;36.74
59063;BME280;44851;45.648;9.004;2022-11-20T11:36:34;98505.25;;;15.35;37.96
59063;BME280;44851;45.648;9.004;2022-11-20T11:39:00;98497.50;;;15.18;37.20
59063;BME280;44851;45.648;9.004;2022-11-20T11:41:31;98490.19;;;15.14;37.07
59063;BME280;44851;45.648;9.004;2022-11-20T11:44:23;98480.97;;;15.03;37.38
59063;BME280;44851;45.648;9.004;2022-11-20T11:47:21;98479.69;;;14.99;38.41
59063;BME280;44851;45.648;9.004;2022-11-20T11:49:48;98471.16;;;14.82;37.00
59063;BME280;44851;45.648;9.004;2022-11-20T11:52:17;98468.66;;;15.03;37.43
59063;BME280;44851;45.648;9.004;2022-11-20T11:54:50;98471.13;;;15.35;37.34
59063;BME280;44851;45.648;9.004;2022-11-20T11:57:23;98472.06;;;15.48;37.31
59063;BME280;44851;45.648;9.004;2022-11-20T12:00:09;98467.91;;;15.39;37.05
59063;BME280;44851;45.648;9.004;2022-11-20T12:05:26;98467.13;;;15.24;37.25
59063;BME280;44851;45.648;9.004;2022-11-20T12:08:03;98470.63;;;15.16;36.84
59063;BME280;44851;45.648;9.004;2022-11-20T12:10:50;98470.53;;;15.39;36.83
59063;BME280;44851;45.648;9.004;2022-11-20T12:16:00;98454.50;;;15.34;36.51
59063;BME280;44851;45.648;9.004;2022-11-20T12:18:27;98454.81;;;15.24;37.16
59063;BME280;44851;45.648;9.004;2022-11-20T12:23:50;98449.44;;;15.18;36.18
59063;BME280;44851;45.648;9.004;2022-11-20T12:37:45;98420.47;;;14.96;37.54
59063;BME280;44851;45.648;9.004;2022-11-20T12:40:35;98429.00;;;14.98;39.85
59063;BME280;44851;45.648;9.004;2022-11-20T12:43:19;98440.13;;;15.15;37.66
59063;BME280;44851;45.648;9.004;2022-11-20T12:56:45;98423.47;;;15.23;37.68
59063;BME280;44851;45.648;9.004;2022-11-20T13:02:14;98419.25;;;14.92;36.60
59063;BME280;44851;45.648;9.004;2022-11-20T13:04:55;98421.69;;;14.94;36.92
59063;BME280;44851;45.648;9.004;2022-11-20T13:07:24;98425.66;;;14.90;36.53
59063;BME280;44851;45.648;9.004;2022-11-20T13:09:52;98421.31;;;14.67;36.70
59063;BME280;44851;45.648;9.004;2022-11-20T13:18:02;98409.13;;;14.37;37.46
59063;BME280;44851;45.648;9.004;2022-11-20T13:20:29;98410.06;;;14.44;38.26
59063;BME280;44851;45.648;9.004;2022-11-20T13:22:56;98409.44;;;14.57;38.61
59063;BME280;44851;45.648;9.004;2022-11-20T13:25:32;98406.31;;;14.38;38.17
59063;BME280;44851;45.648;9.004;2022-11-20T13:28:03;98402.50;;;14.26;37.96
59063;BME280;44851;45.648;9.004;2022-11-20T13:30:30;98385.72;;;14.35;40.03
59063;BME280;44851;45.648;9.004;2022-11-20T13:33:00;98389.13;;;14.21;38.66
59063;BME280;44851;45.648;9.004;2022-11-20T13:35:31;98384.81;;;14.28;38.74
59063;BME280;44851;45.648;9.004;2022-11-20T13:40:26;98384.09;;;14.11;38.74
59063;BME280;44851;45.648;9.004;2022-11-20T13:42:56;98388.91;;;14.08;39.92
59063;BME280;44851;45.648;9.004;2022-11-20T13:47:49;98374.34;;;13.82;40.74
59063;BME280;44851;45.648;9.004;2022-11-20T13:50:15;98375.63;;;13.63;40.59
59063;BME280;44851;45.648;9.004;2022-11-20T13:58:44;98373.38;;;13.29;41.54
59063;BME280;44851;45.648;9.004;2022-11-20T14:01:17;98369.09;;;13.36;42.13
59063;BME280;44851;45.648;9.004;2022-11-20T14:03:44;98364.53;;;13.30;42.71
59063;BME280;44851;45.648;9.004;2022-11-20T14:06:43;98361.03;;;13.15;42.98
59063;BME280;44851;45.648;9.004;2022-11-20T14:09:23;98359.72;;;13.11;42.92
59063;BME280;44851;45.648;9.004;2022-11-20T14:11:49;98355.50;;;13.02;43.81
59063;BME280;44851;45.648;9.004;2022-11-20T14:14:17;98353.88;;;13.01;43.53
59063;BME280;44851;45.648;9.004;2022-11-20T14:16:44;98350.47;;;12.92;44.09
59063;BME280;44851;45.648;9.004;2022-11-20T14:21:45;98349.06;;;12.81;45.00
59063;BME280;44851;45.648;9.004;2022-11-20T14:24:11;98358.06;;;12.79;44.72
59063;BME280;44851;45.648;9.004;2022-11-20T14:26:42;98362.97;;;12.74;44.45
59063;BME280;44851;45.648;9.004;2022-11-20T14:29:23;98363.81;;;12.66;43.85
59063;BME280;44851;45.648;9.004;2022-11-20T14:31:53;98367.38;;;12.73;44.34
59063;BME280;44851;45.648;9.004;2022-11-20T14:34:25;98372.16;;;12.69;44.42
59063;BME280;44851;45.648;9.004;2022-11-20T14:36:55;98376.06;;;12.57;44.45
59063;BME280;44851;45.648;9.004;2022-11-20T14:39:33;98367.72;;;12.70;43.75